createdAt,value
2023-02-19T00:01:43.788Z,8.03
2023-02-19T00:04:29.764Z,8.04
2023-02-19T00:07:15.714Z,8.02
2023-02-19T00:10:01.505Z,8.03
2023-02-19T00:12:47.250Z,8.05
2023-02-19T00:15:34.372Z,8.08
2023-02-19T00:18:20.151Z,8.10
2023-02-19T00:21:06.517Z,8.11
2023-02-19T00:23:52.847Z,8.14
2023-02-19T00:26:39.509Z,8.15
2023-02-19T00:29:25.663Z,8.14
2023-02-19T00:32:13.214Z,8.19
2023-02-19T00:34:58.885Z,8.20
2023-02-19T00:37:44.707Z,8.23
2023-02-19T00:40:30.589Z,8.23
2023-02-19T00:43:16.403Z,8.25
2023-02-19T00:46:02.915Z,8.26
2023-02-19T00:48:50.559Z,8.28
2023-02-19T00:51:37.633Z,8.28
2023-02-19T00:54:24.430Z,8.28
2023-02-19T00:57:10.203Z,8.28
2023-02-19T00:59:56.466Z,8.27
2023-02-19T01:02:42.292Z,8.27
2023-02-19T01:05:29.410Z,8.28
2023-02-19T01:08:15.276Z,8.31
2023-02-19T01:11:02.590Z,8.31
2023-02-19T01:13:48.801Z,8.30
2023-02-19T01:16:34.732Z,8.28
2023-02-19T01:19:20.606Z,8.27
2023-02-19T01:22:07.626Z,8.24
2023-02-19T01:24:53.433Z,8.26
2023-02-19T01:27:39.452Z,8.20
2023-02-19T01:30:25.186Z,8.22
2023-02-19T01:33:11.187Z,8.21
2023-02-19T01:35:58.104Z,8.17
2023-02-19T01:38:45.536Z,8.11
2023-02-19T01:41:31.990Z,8.04
2023-02-19T01:44:36.931Z,8.02
2023-02-19T01:47:22.979Z,8.02
2023-02-19T01:50:09.060Z,8.02
2023-02-19T01:52:55.028Z,7.99
2023-02-19T01:55:42.201Z,7.93
2023-02-19T01:58:29.302Z,7.95
2023-02-19T02:01:15.562Z,7.92
2023-02-19T02:04:01.529Z,7.88
2023-02-19T02:06:48.058Z,7.84
2023-02-19T02:09:51.800Z,7.79
2023-02-19T02:12:39.116Z,7.77
2023-02-19T02:15:25.114Z,7.77
2023-02-19T02:18:12.609Z,7.76
2023-02-19T02:21:03.177Z,7.77
2023-02-19T02:23:52.645Z,7.75
2023-02-19T02:26:44.599Z,7.79
2023-02-19T02:29:49.529Z,7.75
2023-02-19T02:32:38.850Z,7.75
2023-02-19T02:35:25.188Z,7.75
2023-02-19T02:38:11.888Z,7.77
2023-02-19T02:40:57.627Z,7.77
2023-02-19T02:43:43.937Z,7.81
2023-02-19T02:46:31.310Z,7.85
2023-02-19T02:49:20.754Z,7.85
2023-02-19T02:52:27.673Z,7.86
2023-02-19T02:55:12.653Z,7.86
2023-02-19T02:57:58.377Z,7.89
2023-02-19T03:01:02.486Z,7.89
2023-02-19T03:03:48.992Z,7.92
2023-02-19T03:06:36.520Z,7.93
2023-02-19T03:09:23.352Z,7.93
2023-02-19T03:12:27.833Z,7.96
2023-02-19T03:15:31.713Z,7.86
2023-02-19T03:18:35.409Z,7.51
2023-02-19T03:21:22.360Z,7.61
2023-02-19T03:24:27.387Z,7.67
2023-02-19T03:27:13.550Z,7.50
2023-02-19T03:30:04.890Z,7.50
2023-02-19T03:32:52.219Z,7.42
2023-02-19T03:35:39.186Z,7.37
2023-02-19T03:38:27.674Z,7.37
2023-02-19T03:41:16.768Z,7.33
2023-02-19T03:44:06.900Z,7.29
2023-02-19T03:46:53.230Z,7.24
2023-02-19T03:49:42.327Z,7.18
2023-02-19T03:52:31.269Z,7.05
2023-02-19T03:55:17.935Z,7.00
2023-02-19T03:58:06.094Z,7.01
2023-02-19T04:00:54.119Z,6.85
2023-02-19T04:03:41.445Z,6.86
2023-02-19T04:06:28.029Z,6.84
2023-02-19T04:09:14.215Z,6.74
2023-02-19T04:12:02.579Z,6.74
2023-02-19T04:14:51.557Z,6.75
2023-02-19T04:17:38.673Z,6.72
2023-02-19T04:20:24.744Z,6.46
2023-02-19T04:23:10.826Z,6.53
2023-02-19T04:25:57.508Z,6.49
2023-02-19T04:28:44.145Z,6.36
2023-02-19T04:31:31.601Z,6.32
2023-02-19T04:34:17.395Z,6.29
2023-02-19T04:37:03.355Z,6.23
2023-02-19T04:39:49.248Z,6.25
2023-02-19T04:42:35.169Z,6.31
2023-02-19T04:45:21.043Z,6.28
2023-02-19T04:48:08.526Z,6.31
2023-02-19T04:50:54.639Z,6.28
2023-02-19T04:53:40.500Z,6.18
2023-02-19T04:56:26.293Z,6.15
2023-02-19T04:59:12.079Z,6.15
2023-02-19T05:01:58.364Z,6.05
2023-02-19T05:04:45.377Z,6.06
2023-02-19T05:07:31.208Z,6.04
2023-02-19T05:10:17.007Z,5.95
2023-02-19T05:13:02.717Z,5.99
2023-02-19T05:15:55.225Z,5.96
2023-02-19T05:18:41.494Z,5.90
2023-02-19T05:21:28.511Z,5.79
2023-02-19T05:24:14.230Z,5.88
2023-02-19T05:27:00.284Z,5.81
2023-02-19T05:29:46.270Z,5.75
2023-02-19T05:32:32.036Z,5.75
2023-02-19T05:35:17.910Z,5.66
2023-02-19T05:38:05.832Z,5.64
2023-02-19T05:40:52.008Z,5.66
2023-02-19T05:43:38.336Z,5.58
2023-02-19T05:46:25.009Z,5.47
2023-02-19T05:49:10.762Z,5.43
2023-02-19T05:51:56.527Z,5.37
2023-02-19T05:54:43.731Z,5.39
2023-02-19T05:57:29.885Z,5.16
2023-02-19T06:00:16.822Z,5.28
2023-02-19T06:03:02.974Z,5.33
2023-02-19T06:05:48.781Z,5.30
2023-02-19T06:08:34.770Z,5.26
2023-02-19T06:11:21.884Z,5.21
2023-02-19T06:14:08.000Z,5.16
2023-02-19T06:16:54.152Z,5.09
2023-02-19T06:19:39.887Z,5.13
2023-02-19T06:22:25.664Z,5.14
2023-02-19T06:25:12.727Z,4.96
2023-02-19T06:28:00.077Z,4.83
2023-02-19T06:30:45.939Z,4.67
2023-02-19T06:33:31.761Z,4.76
2023-02-19T06:36:18.307Z,4.62
2023-02-19T06:39:04.792Z,4.42
2023-02-19T06:41:50.554Z,4.30
2023-02-19T06:44:37.793Z,4.29
2023-02-19T06:47:25.420Z,4.14
2023-02-19T06:50:11.542Z,4.24
2023-02-19T06:52:57.374Z,4.22
2023-02-19T06:55:43.147Z,4.31
2023-02-19T06:58:29.366Z,4.27
2023-02-19T07:01:16.482Z,4.24
2023-02-19T07:04:02.145Z,4.29
2023-02-19T07:06:47.951Z,4.35
2023-02-19T07:09:33.700Z,4.34
2023-02-19T07:12:19.376Z,4.43
2023-02-19T07:15:05.486Z,4.39
2023-02-19T07:17:52.564Z,4.35
2023-02-19T07:20:38.483Z,4.42
2023-02-19T07:23:24.672Z,4.46
2023-02-19T07:26:10.497Z,4.44
2023-02-19T07:28:56.408Z,4.43
2023-02-19T07:31:42.281Z,4.36
2023-02-19T07:34:29.380Z,4.36
2023-02-19T07:37:15.445Z,4.38
2023-02-19T07:40:01.163Z,4.43
2023-02-19T07:42:46.882Z,4.47
2023-02-19T07:45:32.756Z,4.49
2023-02-19T07:48:19.039Z,4.54
2023-02-19T07:51:06.617Z,4.57
2023-02-19T07:53:52.908Z,4.60
2023-02-19T07:56:38.927Z,4.64
2023-02-19T07:59:24.945Z,4.69
2023-02-19T08:02:29.914Z,4.72
2023-02-19T08:05:16.115Z,4.75
2023-02-19T08:08:03.128Z,4.80
2023-02-19T08:11:06.593Z,4.79
2023-02-19T08:13:52.846Z,4.87
2023-02-19T08:16:43.245Z,4.89
2023-02-19T08:19:29.473Z,4.94
2023-02-19T08:22:16.239Z,5.00
2023-02-19T08:25:03.636Z,5.04
2023-02-19T08:27:49.380Z,5.03
2023-02-19T08:30:35.478Z,5.10
2023-02-19T08:33:22.110Z,5.13
2023-02-19T08:36:08.544Z,5.17
2023-02-19T08:38:54.849Z,5.23
2023-02-19T08:41:42.310Z,5.30
2023-02-19T08:44:28.008Z,5.36
2023-02-19T08:47:14.872Z,5.42
2023-02-19T08:50:00.566Z,5.47
2023-02-19T08:52:46.332Z,5.50
2023-02-19T08:55:32.216Z,5.55
2023-02-19T08:58:19.763Z,5.56
2023-02-19T09:01:09.143Z,5.63
2023-02-19T09:03:55.227Z,5.69
2023-02-19T09:06:41.106Z,5.75
2023-02-19T09:09:26.830Z,5.81
2023-02-19T09:12:13.110Z,5.87
2023-02-19T09:15:00.413Z,5.93
2023-02-19T09:17:46.118Z,6.01
2023-02-19T09:20:31.865Z,6.08
2023-02-19T09:23:17.591Z,6.15
2023-02-19T09:26:06.637Z,6.19
2023-02-19T09:28:52.450Z,6.31
2023-02-19T09:31:39.605Z,6.42
2023-02-19T09:34:26.079Z,6.47
2023-02-19T09:37:11.842Z,6.52
2023-02-19T09:39:57.616Z,6.59
2023-02-19T09:42:43.635Z,6.64
2023-02-19T09:45:29.666Z,6.68
2023-02-19T09:48:17.034Z,6.72
2023-02-19T09:51:03.052Z,6.79
2023-02-19T09:53:50.038Z,6.87
2023-02-19T09:56:35.848Z,6.91
2023-02-19T09:59:22.283Z,6.88
2023-02-19T10:02:12.354Z,6.84
2023-02-19T10:04:59.769Z,6.89
2023-02-19T10:07:46.400Z,7.00
2023-02-19T10:10:33.525Z,7.12
2023-02-19T10:13:20.534Z,7.15
2023-02-19T10:16:06.964Z,7.17
2023-02-19T10:18:53.192Z,7.13
2023-02-19T10:21:40.325Z,7.26
2023-02-19T10:24:26.776Z,7.33
2023-02-19T10:27:13.184Z,7.42
2023-02-19T10:29:58.986Z,7.49
2023-02-19T10:32:46.812Z,7.49
2023-02-19T10:35:32.617Z,7.67
2023-02-19T10:38:19.659Z,7.74
2023-02-19T10:41:06.521Z,7.77
2023-02-19T10:43:53.700Z,7.82
2023-02-19T10:46:42.450Z,7.89
2023-02-19T10:49:30.318Z,7.92
2023-02-19T10:52:18.377Z,8.01
2023-02-19T10:55:21.487Z,8.48
2023-02-19T10:58:24.011Z,8.55
2023-02-19T11:01:11.105Z,8.54
2023-02-19T11:04:17.066Z,8.55
2023-02-19T11:07:08.852Z,8.38
2023-02-19T11:09:54.899Z,8.44
2023-02-19T11:12:41.996Z,8.46
2023-02-19T11:15:29.424Z,8.48
2023-02-19T11:18:16.849Z,8.39
2023-02-19T11:21:03.064Z,8.40
2023-02-19T11:23:49.954Z,8.85
2023-02-19T11:26:38.056Z,9.23
2023-02-19T11:29:28.506Z,9.49
2023-02-19T11:32:22.360Z,9.88
2023-02-19T11:35:17.483Z,10.46
2023-02-19T11:38:03.552Z,10.47
2023-02-19T11:40:52.253Z,10.34
2023-02-19T11:43:41.426Z,10.55
2023-02-19T11:46:29.686Z,10.94
2023-02-19T11:49:18.502Z,10.83
2023-02-19T11:52:11.801Z,10.70
2023-02-19T11:55:00.677Z,10.61
2023-02-19T11:57:47.297Z,10.63
2023-02-19T12:00:34.026Z,10.74
2023-02-19T12:03:27.592Z,10.69
2023-02-19T12:06:16.912Z,10.65
2023-02-19T12:09:10.275Z,10.81
2023-02-19T12:12:08.368Z,11.12
2023-02-19T12:15:11.588Z,11.36
2023-02-19T12:18:27.958Z,11.64
2023-02-19T12:21:21.474Z,11.96
2023-02-19T12:24:12.696Z,12.21
2023-02-19T12:27:01.903Z,12.46
2023-02-19T12:29:59.095Z,12.71
2023-02-19T12:32:48.428Z,12.94
2023-02-19T12:35:48.093Z,13.01
2023-02-19T12:38:37.889Z,13.21
2023-02-19T12:41:29.282Z,13.34
2023-02-19T12:44:16.770Z,13.57
2023-02-19T12:47:02.702Z,13.61
2023-02-19T12:49:49.399Z,13.72
2023-02-19T12:52:36.639Z,13.54
2023-02-19T12:55:25.465Z,13.55
2023-02-19T12:58:12.423Z,13.48
2023-02-19T13:00:59.574Z,13.32
2023-02-19T13:03:49.185Z,13.45
2023-02-19T13:06:36.317Z,13.39
2023-02-19T13:09:22.567Z,13.46
2023-02-19T13:12:13.067Z,13.50
2023-02-19T13:14:59.790Z,13.41
2023-02-19T13:17:46.072Z,13.27
2023-02-19T13:20:32.173Z,13.37
2023-02-19T13:23:36.530Z,13.42
2023-02-19T13:26:30.893Z,13.44
2023-02-19T13:29:27.806Z,13.37
2023-02-19T13:32:21.217Z,13.28
2023-02-19T13:35:13.191Z,13.01
2023-02-19T13:38:00.968Z,12.93
2023-02-19T13:40:53.916Z,12.93
2023-02-19T13:43:39.909Z,12.94
2023-02-19T13:46:27.530Z,12.67
2023-02-19T13:49:24.442Z,12.65
2023-02-19T13:52:33.081Z,12.50
2023-02-19T13:55:41.294Z,12.22
2023-02-19T13:58:51.964Z,12.09
2023-02-19T14:01:52.806Z,11.76
2023-02-19T14:04:45.097Z,11.47
2023-02-19T14:07:46.186Z,11.39
2023-02-19T14:11:02.120Z,11.29
2023-02-19T14:14:10.932Z,11.16
2023-02-19T14:17:04.527Z,11.13
2023-02-19T14:19:55.733Z,10.97
2023-02-19T14:22:50.044Z,10.81
2023-02-19T14:25:46.685Z,10.63
2023-02-19T14:28:35.429Z,10.59
2023-02-19T14:31:30.547Z,10.51
2023-02-19T14:34:19.474Z,10.44
2023-02-19T14:37:09.970Z,10.33
2023-02-19T14:39:57.626Z,10.16
2023-02-19T14:42:43.413Z,10.00
2023-02-19T14:45:29.206Z,10.00
2023-02-19T14:48:17.667Z,9.83
2023-02-19T14:51:04.695Z,9.71
2023-02-19T14:53:52.254Z,9.60
2023-02-19T14:56:38.308Z,9.50
2023-02-19T14:59:25.333Z,9.41
2023-02-19T15:02:15.961Z,9.25
2023-02-19T15:05:01.861Z,9.13
2023-02-19T15:07:47.575Z,9.05
2023-02-19T15:10:35.272Z,8.89
2023-02-19T15:13:22.741Z,8.89
2023-02-19T15:16:08.734Z,8.81
2023-02-19T15:18:55.109Z,8.68
2023-02-19T15:21:41.089Z,8.61
2023-02-19T15:24:28.172Z,8.54
2023-02-19T15:27:17.806Z,8.47
2023-02-19T15:30:04.340Z,8.42
2023-02-19T15:32:54.349Z,8.30
2023-02-19T15:35:40.093Z,8.20
2023-02-19T15:38:26.376Z,8.09
2023-02-19T15:41:16.599Z,8.00
2023-02-19T15:44:12.642Z,7.86
2023-02-19T15:46:58.455Z,7.80
2023-02-19T15:49:46.679Z,7.66
2023-02-19T15:52:34.248Z,7.63
2023-02-19T15:55:22.256Z,7.58
2023-02-19T15:58:09.476Z,7.43
2023-02-19T16:00:57.770Z,7.37
2023-02-19T16:03:43.548Z,7.32
2023-02-19T16:06:30.463Z,7.21
2023-02-19T16:09:17.871Z,7.13
2023-02-19T16:12:04.695Z,7.02
2023-02-19T16:14:51.050Z,6.86
2023-02-19T16:17:38.228Z,6.78
2023-02-19T16:20:25.513Z,6.66
2023-02-19T16:23:12.286Z,6.55
2023-02-19T16:25:59.048Z,6.42
2023-02-19T16:28:45.129Z,6.36
2023-02-19T16:31:31.475Z,6.25
2023-02-19T16:34:19.463Z,6.13
2023-02-19T16:37:06.063Z,6.04
2023-02-19T16:39:53.768Z,5.95
2023-02-19T16:42:58.185Z,5.84
2023-02-19T16:45:44.392Z,5.73
2023-02-19T16:48:30.447Z,5.64
2023-02-19T16:51:18.244Z,5.56
2023-02-19T16:54:04.500Z,5.45
2023-02-19T16:56:50.339Z,5.30
2023-02-19T16:59:36.202Z,5.25
2023-02-19T17:02:22.533Z,5.13
2023-02-19T17:05:08.465Z,5.05
2023-02-19T17:07:55.856Z,4.97
2023-02-19T17:10:41.818Z,4.90
2023-02-19T17:13:27.711Z,4.81
2023-02-19T17:16:14.718Z,4.74
2023-02-19T17:19:00.814Z,4.67
2023-02-19T17:21:46.996Z,4.60
2023-02-19T17:24:34.403Z,4.52
2023-02-19T17:27:20.135Z,4.46
2023-02-19T17:30:07.409Z,4.41
2023-02-19T17:32:53.069Z,4.34
2023-02-19T17:35:39.035Z,4.31
2023-02-19T17:38:25.096Z,4.25
2023-02-19T17:41:12.231Z,4.20
2023-02-19T17:43:58.257Z,4.14
2023-02-19T17:46:44.012Z,4.10
2023-02-19T17:49:29.837Z,4.07
2023-02-19T17:52:17.557Z,4.04
2023-02-19T17:55:03.265Z,4.03
2023-02-19T17:57:50.543Z,4.01
2023-02-19T18:00:37.035Z,3.98
2023-02-19T18:03:23.013Z,3.97
2023-02-19T18:06:08.836Z,3.93
2023-02-19T18:08:54.877Z,3.90
2023-02-19T18:11:40.569Z,3.86
2023-02-19T18:14:27.680Z,3.84
2023-02-19T18:17:13.647Z,3.78
2023-02-19T18:19:59.488Z,3.77
2023-02-19T18:22:45.415Z,3.74
2023-02-19T18:25:31.159Z,3.72
2023-02-19T18:28:17.162Z,3.71
2023-02-19T18:31:04.522Z,3.70
2023-02-19T18:33:50.749Z,3.67
2023-02-19T18:36:36.491Z,3.64
2023-02-19T18:39:22.339Z,3.57
2023-02-19T18:42:08.093Z,3.57
2023-02-19T18:44:54.246Z,3.51
2023-02-19T18:47:41.500Z,3.48
2023-02-19T18:50:27.324Z,3.43
2023-02-19T18:53:14.891Z,3.39
2023-02-19T18:56:01.928Z,3.41
2023-02-19T18:58:50.312Z,3.39
2023-02-19T19:01:36.557Z,3.41
2023-02-19T19:04:23.959Z,3.40
2023-02-19T19:07:10.289Z,3.41
2023-02-19T19:09:56.435Z,3.39
2023-02-19T19:12:42.585Z,3.40
2023-02-19T19:15:29.992Z,3.42
2023-02-19T19:18:15.622Z,3.44
2023-02-19T19:21:03.432Z,3.44
2023-02-19T19:23:49.519Z,3.44
2023-02-19T19:26:35.574Z,3.46
2023-02-19T19:29:22.311Z,3.48
2023-02-19T19:32:08.880Z,3.50
2023-02-19T19:34:55.207Z,3.52
2023-02-19T19:37:42.510Z,3.55
2023-02-19T19:40:28.318Z,3.57
2023-02-19T19:43:14.370Z,3.59
2023-02-19T19:46:00.483Z,3.62
2023-02-19T19:48:46.447Z,3.66
2023-02-19T19:51:32.677Z,3.70
2023-02-19T19:54:19.739Z,3.72
2023-02-19T19:57:05.402Z,3.74
2023-02-19T19:59:51.856Z,3.75
2023-02-19T20:02:37.961Z,3.76
2023-02-19T20:05:24.151Z,3.74
2023-02-19T20:08:09.998Z,3.77
2023-02-19T20:10:57.189Z,3.83
2023-02-19T20:13:43.132Z,3.83
2023-02-19T20:16:29.437Z,3.84
2023-02-19T20:19:15.274Z,3.86
2023-02-19T20:22:01.064Z,3.87
2023-02-19T20:24:50.096Z,3.88
2023-02-19T20:27:37.488Z,3.89
2023-02-19T20:30:24.130Z,3.90
2023-02-19T20:33:10.326Z,3.92
2023-02-19T20:35:56.894Z,3.91
2023-02-19T20:38:43.528Z,3.92
2023-02-19T20:41:29.939Z,3.93
2023-02-19T20:44:17.374Z,3.94
2023-02-19T20:47:03.578Z,3.93
2023-02-19T20:49:51.515Z,3.97
2023-02-19T20:52:37.830Z,4.00
2023-02-19T20:55:25.858Z,4.05
2023-02-19T20:58:11.623Z,4.05
2023-02-19T21:00:58.485Z,4.06
2023-02-19T21:03:44.217Z,4.11
2023-02-19T21:06:30.120Z,4.16
2023-02-19T21:09:15.809Z,4.18
2023-02-19T21:12:01.769Z,4.22
2023-02-19T21:14:48.094Z,4.25
2023-02-19T21:17:35.346Z,4.28
2023-02-19T21:20:21.548Z,4.29
2023-02-19T21:23:07.751Z,4.29
2023-02-19T21:25:54.656Z,4.31
2023-02-19T21:28:41.345Z,4.33
2023-02-19T21:31:35.988Z,4.38
2023-02-19T21:34:26.337Z,4.43
2023-02-19T21:37:15.447Z,4.49
2023-02-19T21:40:01.431Z,4.51
2023-02-19T21:42:52.572Z,4.56
2023-02-19T21:45:43.572Z,4.56
2023-02-19T21:48:29.982Z,4.56
2023-02-19T21:51:25.430Z,4.57
2023-02-19T21:54:14.475Z,4.59
2023-02-19T21:57:04.949Z,4.57
2023-02-19T21:59:54.366Z,4.58
2023-02-19T22:02:41.831Z,4.57
2023-02-19T22:05:27.964Z,4.56
2023-02-19T22:08:17.206Z,4.54
2023-02-19T22:11:06.096Z,4.53
2023-02-19T22:13:52.424Z,4.50
2023-02-19T22:16:41.229Z,4.47
2023-02-19T22:19:27.094Z,4.46
2023-02-19T22:22:16.996Z,4.43
2023-02-19T22:25:04.354Z,4.42
2023-02-19T22:27:50.161Z,4.43
2023-02-19T22:30:36.102Z,4.43
2023-02-19T22:33:23.312Z,4.46
2023-02-19T22:36:14.287Z,4.44
2023-02-19T22:39:00.451Z,4.46
2023-02-19T22:41:47.742Z,4.48
2023-02-19T22:44:34.311Z,4.52
2023-02-19T22:47:20.126Z,4.52
2023-02-19T22:50:06.705Z,4.55
2023-02-19T22:52:54.778Z,4.57
2023-02-19T22:55:40.792Z,4.57
2023-02-19T22:58:28.009Z,4.63
2023-02-19T23:01:14.292Z,4.67
2023-02-19T23:04:01.007Z,4.68
2023-02-19T23:06:46.933Z,4.74
2023-02-19T23:09:32.843Z,4.77
2023-02-19T23:12:18.695Z,4.82
2023-02-19T23:15:06.488Z,4.84
2023-02-19T23:17:52.195Z,4.87
2023-02-19T23:20:38.053Z,4.92
2023-02-19T23:23:23.711Z,4.97
2023-02-19T23:26:09.845Z,4.96
2023-02-19T23:28:56.000Z,4.99
2023-02-19T23:31:43.119Z,5.02
2023-02-19T23:34:28.992Z,5.05
2023-02-19T23:37:14.947Z,5.07
2023-02-19T23:40:00.686Z,5.10
2023-02-19T23:42:46.439Z,5.11
2023-02-19T23:45:32.208Z,5.12
2023-02-19T23:48:19.285Z,5.16
2023-02-19T23:51:05.129Z,5.16
2023-02-19T23:53:50.932Z,5.20
2023-02-19T23:56:37.406Z,5.18
2023-02-19T23:59:23.423Z,5.23
